createdAt,value
2022-12-25T00:00:40.351Z,94.75
2022-12-25T00:02:12.036Z,94.47
2022-12-25T00:03:44.063Z,94.65
2022-12-25T00:05:15.832Z,94.47
2022-12-25T00:06:47.577Z,94.62
2022-12-25T00:08:19.206Z,94.72
2022-12-25T00:09:50.884Z,94.57
2022-12-25T00:11:22.512Z,94.87
2022-12-25T00:12:54.140Z,94.64
2022-12-25T00:14:25.762Z,94.87
2022-12-25T00:15:57.990Z,94.91
2022-12-25T00:17:29.694Z,94.80
2022-12-25T00:19:01.311Z,94.18
2022-12-25T00:20:32.941Z,94.21
2022-12-25T00:22:04.961Z,93.87
2022-12-25T00:23:36.668Z,94.18
2022-12-25T00:25:08.789Z,94.32
2022-12-25T00:26:40.425Z,94.22
2022-12-25T00:28:12.053Z,94.05
2022-12-25T00:29:43.782Z,93.94
2022-12-25T00:31:17.894Z,93.85
2022-12-25T00:32:49.647Z,93.73
2022-12-25T00:34:21.806Z,93.64
2022-12-25T00:36:00.700Z,93.60
2022-12-25T00:37:32.369Z,93.54
2022-12-25T00:39:04.219Z,93.41
2022-12-25T00:40:43.189Z,93.72
2022-12-25T00:42:20.618Z,93.90
2022-12-25T00:43:52.162Z,94.33
2022-12-25T00:45:23.850Z,94.18
2022-12-25T00:46:55.632Z,93.83
2022-12-25T00:48:29.227Z,94.08
2022-12-25T00:50:00.848Z,93.91
2022-12-25T00:51:33.583Z,93.37
2022-12-25T00:53:05.239Z,93.04
2022-12-25T00:54:37.551Z,93.40
2022-12-25T00:56:10.716Z,93.67
2022-12-25T00:57:42.297Z,93.25
2022-12-25T00:59:14.369Z,93.47
2022-12-25T01:00:47.044Z,93.14
2022-12-25T01:02:25.039Z,93.61
2022-12-25T01:03:57.091Z,93.06
2022-12-25T01:05:28.965Z,93.32
2022-12-25T01:07:00.581Z,93.38
2022-12-25T01:08:35.600Z,92.96
2022-12-25T01:10:23.140Z,93.34
2022-12-25T01:11:54.799Z,93.42
2022-12-25T01:13:27.597Z,93.50
2022-12-25T01:14:59.594Z,93.57
2022-12-25T01:16:31.306Z,93.53
2022-12-25T01:18:07.747Z,93.58
2022-12-25T01:19:40.041Z,93.22
2022-12-25T01:21:16.196Z,93.67
2022-12-25T01:22:47.784Z,93.69
2022-12-25T01:24:19.427Z,93.88
2022-12-25T01:25:50.983Z,93.78
2022-12-25T01:27:22.618Z,93.51
2022-12-25T01:28:54.224Z,93.44
2022-12-25T01:30:25.761Z,93.93
2022-12-25T01:31:57.487Z,93.66
2022-12-25T01:33:29.546Z,93.63
2022-12-25T01:35:01.102Z,93.76
2022-12-25T01:36:32.724Z,93.81
2022-12-25T01:38:04.296Z,93.70
2022-12-25T01:39:35.870Z,93.59
2022-12-25T01:41:07.628Z,93.42
2022-12-25T01:42:39.471Z,93.47
2022-12-25T01:44:13.646Z,93.85
2022-12-25T01:45:46.471Z,93.89
2022-12-25T01:47:18.551Z,94.35
2022-12-25T01:48:51.595Z,93.67
2022-12-25T01:50:23.558Z,93.84
2022-12-25T01:52:04.235Z,94.38
2022-12-25T01:53:35.999Z,94.23
2022-12-25T01:55:10.060Z,94.31
2022-12-25T01:56:43.877Z,94.96
2022-12-25T01:58:17.040Z,94.90
2022-12-25T01:59:49.167Z,94.76
2022-12-25T02:01:21.061Z,94.76
2022-12-25T02:02:52.866Z,94.74
2022-12-25T02:04:39.641Z,95.14
2022-12-25T02:06:11.825Z,94.83
2022-12-25T02:07:44.271Z,94.70
2022-12-25T02:09:16.082Z,95.21
2022-12-25T02:10:47.961Z,95.35
2022-12-25T02:12:29.123Z,94.84
2022-12-25T02:14:01.199Z,95.16
2022-12-25T02:15:40.528Z,95.78
2022-12-25T02:17:21.054Z,95.76
2022-12-25T02:18:59.260Z,95.53
2022-12-25T02:20:36.449Z,95.79
2022-12-25T02:22:13.759Z,95.95
2022-12-25T02:23:54.536Z,95.68
2022-12-25T02:25:59.860Z,95.07
2022-12-25T02:27:37.409Z,95.65
2022-12-25T02:29:11.707Z,95.87
2022-12-25T02:30:49.956Z,95.58
2022-12-25T02:32:49.320Z,96.21
2022-12-25T02:34:42.752Z,96.21
2022-12-25T02:36:26.401Z,96.52
2022-12-25T02:38:16.644Z,96.84
2022-12-25T02:40:11.671Z,96.74
2022-12-25T02:41:45.105Z,96.57
2022-12-25T02:43:43.824Z,97.08
2022-12-25T02:45:40.268Z,96.40
2022-12-25T02:47:30.570Z,96.19
2022-12-25T02:49:28.919Z,96.88
2022-12-25T02:51:23.126Z,96.65
2022-12-25T02:53:15.747Z,96.58
2022-12-25T02:55:11.522Z,96.63
2022-12-25T02:57:04.645Z,96.04
2022-12-25T02:58:57.963Z,95.59
2022-12-25T03:00:51.030Z,95.88
2022-12-25T03:02:42.776Z,96.27
2022-12-25T03:04:36.912Z,96.53
2022-12-25T03:06:29.087Z,96.12
2022-12-25T03:08:07.519Z,96.11
2022-12-25T03:10:01.928Z,96.03
2022-12-25T03:11:33.821Z,95.74
2022-12-25T03:13:28.831Z,95.82
2022-12-25T03:15:18.933Z,95.84
2022-12-25T03:16:54.014Z,96.36
2022-12-25T03:18:28.093Z,95.88
2022-12-25T03:20:18.805Z,95.84
2022-12-25T03:22:09.123Z,96.66
2022-12-25T03:24:02.657Z,95.93
2022-12-25T03:25:53.183Z,96.21
2022-12-25T03:27:29.684Z,95.86
2022-12-25T03:29:01.425Z,95.89
2022-12-25T03:31:00.433Z,95.76
2022-12-25T03:32:44.402Z,96.01
2022-12-25T03:35:04.068Z,96.03
2022-12-25T03:37:22.378Z,96.07
2022-12-25T03:39:25.456Z,95.56
2022-12-25T03:41:18.728Z,95.73
2022-12-25T03:43:15.745Z,95.57
2022-12-25T03:45:32.305Z,96.21
2022-12-25T03:47:39.289Z,96.26
2022-12-25T03:49:45.858Z,96.31
2022-12-25T03:51:40.319Z,96.17
2022-12-25T03:53:48.513Z,95.41
2022-12-25T03:55:40.456Z,95.94
2022-12-25T03:57:32.653Z,96.09
2022-12-25T03:59:24.046Z,96.17
2022-12-25T04:01:14.872Z,96.26
2022-12-25T04:03:05.114Z,96.17
2022-12-25T04:04:55.814Z,96.46
2022-12-25T04:06:46.135Z,96.08
2022-12-25T04:08:36.331Z,95.24
2022-12-25T04:10:26.922Z,95.57
2022-12-25T04:12:16.983Z,96.31
2022-12-25T04:14:11.622Z,96.41
2022-12-25T04:16:01.548Z,96.24
2022-12-25T04:17:51.842Z,96.07
2022-12-25T04:19:42.095Z,96.22
2022-12-25T04:21:32.641Z,95.68
2022-12-25T04:23:22.606Z,95.80
2022-12-25T04:25:12.983Z,96.11
2022-12-25T04:27:03.292Z,95.69
2022-12-25T04:28:53.497Z,95.40
2022-12-25T04:30:44.415Z,95.89
2022-12-25T04:32:34.858Z,95.48
2022-12-25T04:34:25.004Z,95.76
2022-12-25T04:36:14.549Z,95.63
2022-12-25T04:37:46.196Z,95.19
2022-12-25T04:39:17.925Z,95.48
2022-12-25T04:40:49.586Z,95.01
2022-12-25T04:42:21.318Z,95.33
2022-12-25T04:43:52.881Z,95.09
2022-12-25T04:45:24.431Z,94.87
2022-12-25T04:46:56.083Z,95.11
2022-12-25T04:48:29.832Z,95.10
2022-12-25T04:50:01.491Z,95.19
2022-12-25T04:51:33.060Z,95.07
2022-12-25T04:53:04.632Z,95.13
2022-12-25T04:54:37.792Z,95.18
2022-12-25T04:56:09.571Z,95.09
2022-12-25T04:57:41.234Z,95.29
2022-12-25T04:59:13.007Z,95.20
2022-12-25T05:00:44.650Z,94.95
2022-12-25T05:02:16.500Z,95.19
2022-12-25T05:03:48.288Z,95.26
2022-12-25T05:05:19.962Z,94.46
2022-12-25T05:06:51.631Z,94.04
2022-12-25T05:08:23.601Z,94.49
2022-12-25T05:09:55.198Z,94.46
2022-12-25T05:11:27.532Z,94.58
2022-12-25T05:12:59.142Z,94.81
2022-12-25T05:14:30.971Z,94.92
2022-12-25T05:16:05.795Z,94.95
2022-12-25T05:17:37.622Z,94.88
2022-12-25T05:19:09.452Z,95.17
2022-12-25T05:20:41.107Z,95.02
2022-12-25T05:22:12.693Z,95.06
2022-12-25T05:23:50.589Z,95.11
2022-12-25T05:25:22.225Z,94.82
2022-12-25T05:26:54.764Z,95.48
2022-12-25T05:28:26.333Z,95.47
2022-12-25T05:29:58.010Z,95.35
2022-12-25T05:31:29.736Z,94.90
2022-12-25T05:33:02.087Z,95.53
2022-12-25T05:34:33.709Z,94.89
2022-12-25T05:36:07.522Z,94.70
2022-12-25T05:37:39.296Z,94.91
2022-12-25T05:39:10.884Z,95.09
2022-12-25T05:40:42.672Z,95.28
2022-12-25T05:42:14.324Z,94.76
2022-12-25T05:43:45.967Z,94.90
2022-12-25T05:45:17.581Z,94.66
2022-12-25T05:46:49.229Z,95.31
2022-12-25T05:48:20.947Z,95.09
2022-12-25T05:49:52.595Z,95.45
2022-12-25T05:51:25.148Z,95.25
2022-12-25T05:52:57.706Z,95.68
2022-12-25T05:54:31.790Z,95.89
2022-12-25T05:56:05.409Z,95.52
2022-12-25T05:57:37.713Z,95.36
2022-12-25T05:59:09.313Z,95.63
2022-12-25T06:00:41.054Z,95.18
2022-12-25T06:02:12.882Z,94.64
2022-12-25T06:03:45.113Z,94.85
2022-12-25T06:05:16.841Z,94.65
2022-12-25T06:06:48.629Z,94.88
2022-12-25T06:08:20.805Z,94.71
2022-12-25T06:09:52.408Z,94.24
2022-12-25T06:11:24.175Z,94.45
2022-12-25T06:12:55.844Z,93.64
2022-12-25T06:14:27.543Z,94.14
2022-12-25T06:15:59.498Z,94.69
2022-12-25T06:17:31.143Z,94.54
2022-12-25T06:19:02.839Z,94.80
2022-12-25T06:20:34.568Z,94.52
2022-12-25T06:22:06.212Z,94.41
2022-12-25T06:23:39.491Z,94.53
2022-12-25T06:25:11.177Z,94.20
2022-12-25T06:26:42.733Z,94.29
2022-12-25T06:28:14.368Z,95.09
2022-12-25T06:29:45.979Z,95.41
2022-12-25T06:31:20.309Z,95.16
2022-12-25T06:32:51.971Z,95.12
2022-12-25T06:34:23.753Z,95.69
2022-12-25T06:35:55.457Z,95.87
2022-12-25T06:37:27.085Z,96.16
2022-12-25T06:39:01.823Z,95.82
2022-12-25T06:40:34.663Z,96.35
2022-12-25T06:42:06.270Z,95.96
2022-12-25T06:43:38.530Z,96.04
2022-12-25T06:45:10.561Z,95.59
2022-12-25T06:46:42.317Z,95.01
2022-12-25T06:48:13.923Z,95.16
2022-12-25T06:49:45.604Z,94.80
2022-12-25T06:51:24.363Z,95.20
2022-12-25T06:52:56.930Z,95.61
2022-12-25T06:54:28.647Z,95.38
2022-12-25T06:56:08.793Z,95.37
2022-12-25T06:57:40.480Z,95.03
2022-12-25T06:59:12.475Z,95.74
2022-12-25T07:00:44.071Z,95.51
2022-12-25T07:02:23.228Z,94.46
2022-12-25T07:03:57.659Z,95.25
2022-12-25T07:05:29.215Z,95.33
2022-12-25T07:07:07.959Z,94.79
2022-12-25T07:08:40.724Z,94.59
2022-12-25T07:10:12.333Z,94.66
2022-12-25T07:11:44.033Z,94.22
2022-12-25T07:13:15.575Z,94.30
2022-12-25T07:14:49.826Z,94.53
2022-12-25T07:16:21.593Z,94.67
2022-12-25T07:17:53.213Z,94.55
2022-12-25T07:19:24.975Z,94.20
2022-12-25T07:20:59.334Z,94.43
2022-12-25T07:22:31.154Z,95.30
2022-12-25T07:24:02.877Z,95.09
2022-12-25T07:25:37.442Z,94.94
2022-12-25T07:27:09.709Z,95.29
2022-12-25T07:28:41.340Z,95.18
2022-12-25T07:30:13.402Z,94.95
2022-12-25T07:31:45.222Z,95.09
2022-12-25T07:33:17.536Z,95.40
2022-12-25T07:34:49.148Z,95.47
2022-12-25T07:36:21.183Z,95.72
2022-12-25T07:37:53.348Z,96.46
2022-12-25T07:39:24.954Z,96.75
2022-12-25T07:40:56.624Z,97.17
2022-12-25T07:42:28.247Z,97.28
2022-12-25T07:43:59.921Z,97.58
2022-12-25T07:45:31.570Z,97.59
2022-12-25T07:47:03.370Z,97.93
2022-12-25T07:48:36.234Z,97.82
2022-12-25T07:50:08.219Z,97.63
2022-12-25T07:51:40.053Z,97.42
2022-12-25T07:53:11.688Z,97.13
2022-12-25T07:54:43.300Z,97.54
2022-12-25T07:56:18.838Z,97.93
2022-12-25T07:57:50.477Z,97.71
2022-12-25T07:59:22.108Z,97.41
2022-12-25T08:00:53.883Z,97.22
2022-12-25T08:02:28.915Z,97.20
2022-12-25T08:04:02.736Z,97.47
2022-12-25T08:05:34.356Z,97.20
2022-12-25T08:07:05.929Z,96.59
2022-12-25T08:08:40.108Z,96.72
2022-12-25T08:10:11.808Z,96.81
2022-12-25T08:11:47.114Z,96.21
2022-12-25T08:13:18.632Z,95.79
2022-12-25T08:14:50.274Z,95.27
2022-12-25T08:16:22.758Z,94.25
2022-12-25T08:17:54.446Z,94.87
2022-12-25T08:19:26.099Z,94.53
2022-12-25T08:21:06.018Z,95.56
2022-12-25T08:22:37.643Z,95.87
2022-12-25T08:24:09.329Z,94.61
2022-12-25T08:25:40.904Z,94.12
2022-12-25T08:27:12.521Z,93.99
2022-12-25T08:28:44.418Z,93.71
2022-12-25T08:30:16.092Z,94.12
2022-12-25T08:31:47.778Z,94.90
2022-12-25T08:33:19.393Z,94.64
2022-12-25T08:34:51.000Z,93.83
2022-12-25T08:36:23.611Z,93.99
2022-12-25T08:37:55.164Z,93.42
2022-12-25T08:39:26.822Z,93.45
2022-12-25T08:40:58.482Z,93.88
2022-12-25T08:42:30.104Z,93.44
2022-12-25T08:44:02.458Z,93.66
2022-12-25T08:45:35.435Z,92.74
2022-12-25T08:47:07.072Z,92.85
2022-12-25T08:48:42.396Z,92.98
2022-12-25T08:50:14.203Z,92.64
2022-12-25T08:51:46.024Z,92.69
2022-12-25T08:53:17.948Z,93.46
2022-12-25T08:54:49.530Z,93.51
2022-12-25T08:56:21.188Z,93.33
2022-12-25T08:57:54.247Z,93.27
2022-12-25T08:59:25.970Z,93.24
2022-12-25T09:00:57.704Z,92.87
2022-12-25T09:02:29.568Z,93.17
2022-12-25T09:04:01.329Z,93.62
2022-12-25T09:05:36.596Z,93.09
2022-12-25T09:07:08.169Z,92.90
2022-12-25T09:08:46.236Z,93.23
2022-12-25T09:10:19.632Z,92.88
2022-12-25T09:11:51.224Z,92.82
2022-12-25T09:13:22.832Z,91.50
2022-12-25T09:14:54.554Z,91.81
2022-12-25T09:16:26.565Z,91.03
2022-12-25T09:17:58.286Z,91.47
2022-12-25T09:19:30.749Z,91.52
2022-12-25T09:21:05.378Z,90.81
2022-12-25T09:22:37.027Z,90.55
2022-12-25T09:24:08.700Z,90.41
2022-12-25T09:25:40.339Z,90.64
2022-12-25T09:27:11.938Z,91.00
2022-12-25T09:28:50.651Z,91.10
2022-12-25T09:30:23.879Z,90.90
2022-12-25T09:31:55.455Z,90.66
2022-12-25T09:33:27.924Z,90.06
2022-12-25T09:34:59.488Z,91.98
2022-12-25T09:36:31.176Z,91.99
2022-12-25T09:38:02.825Z,91.67
2022-12-25T09:39:34.493Z,91.29
2022-12-25T09:41:16.097Z,89.86
2022-12-25T09:42:49.454Z,89.55
2022-12-25T09:44:44.915Z,90.47
2022-12-25T09:46:21.912Z,92.09
2022-12-25T09:47:57.024Z,91.17
2022-12-25T09:49:58.066Z,91.12
2022-12-25T09:51:33.951Z,91.02
2022-12-25T09:53:19.316Z,91.12
2022-12-25T09:55:06.711Z,90.65
2022-12-25T09:56:38.698Z,89.84
2022-12-25T09:58:15.471Z,89.23
2022-12-25T09:59:47.572Z,89.01
2022-12-25T10:01:37.790Z,88.82
2022-12-25T10:03:45.787Z,87.20
2022-12-25T10:05:21.948Z,87.70
2022-12-25T10:07:02.465Z,87.63
2022-12-25T10:08:52.704Z,88.65
2022-12-25T10:10:30.089Z,89.63
2022-12-25T10:12:35.583Z,89.63
2022-12-25T10:14:31.834Z,90.32
2022-12-25T10:16:26.677Z,92.31
2022-12-25T10:18:13.554Z,92.90
2022-12-25T10:19:53.119Z,92.89
2022-12-25T10:21:25.602Z,93.36
2022-12-25T10:23:00.552Z,93.40
2022-12-25T10:24:35.058Z,93.33
2022-12-25T10:26:18.784Z,92.85
2022-12-25T10:27:58.331Z,93.09
2022-12-25T10:29:33.443Z,92.92
2022-12-25T10:31:27.086Z,92.49
2022-12-25T10:32:59.027Z,92.53
2022-12-25T10:34:30.674Z,92.49
2022-12-25T10:36:02.839Z,92.28
2022-12-25T10:37:34.374Z,91.76
2022-12-25T10:39:06.003Z,91.77
2022-12-25T10:41:06.073Z,91.17
2022-12-25T10:42:42.473Z,91.14
2022-12-25T10:44:24.269Z,90.93
2022-12-25T10:45:55.856Z,90.03
2022-12-25T10:47:38.127Z,89.99
2022-12-25T10:49:15.150Z,90.11
2022-12-25T10:50:47.432Z,89.67
2022-12-25T10:52:24.681Z,89.50
2022-12-25T10:53:56.498Z,89.04
2022-12-25T10:55:29.340Z,89.08
2022-12-25T10:57:21.974Z,88.77
2022-12-25T10:59:06.961Z,88.58
2022-12-25T11:00:38.635Z,88.03
2022-12-25T11:02:26.764Z,87.80
2022-12-25T11:03:59.049Z,87.60
2022-12-25T11:05:33.364Z,86.45
2022-12-25T11:07:15.024Z,85.28
2022-12-25T11:08:53.381Z,85.20
2022-12-25T11:10:31.387Z,85.39
2022-12-25T11:12:03.265Z,84.50
2022-12-25T11:13:39.641Z,84.64
2022-12-25T11:15:36.439Z,85.68
2022-12-25T11:17:09.731Z,83.16
2022-12-25T11:18:50.116Z,74.22
2022-12-25T11:20:22.607Z,72.18
2022-12-25T11:22:00.462Z,71.12
2022-12-25T11:23:32.882Z,74.47
2022-12-25T11:25:15.203Z,74.34
2022-12-25T11:26:50.342Z,73.88
2022-12-25T11:28:22.193Z,69.59
2022-12-25T11:30:04.736Z,64.89
2022-12-25T11:31:41.096Z,68.35
2022-12-25T11:33:14.304Z,66.67
2022-12-25T11:34:48.470Z,66.53
2022-12-25T11:36:24.318Z,52.50
2022-12-25T11:37:55.811Z,51.96
2022-12-25T11:39:28.923Z,48.73
2022-12-25T11:41:04.419Z,44.85
2022-12-25T11:43:07.896Z,40.76
2022-12-25T11:44:53.328Z,40.88
2022-12-25T11:46:33.777Z,47.53
2022-12-25T11:48:15.921Z,58.88
2022-12-25T11:50:00.899Z,65.99
2022-12-25T11:51:38.704Z,71.26
2022-12-25T11:53:22.247Z,74.28
2022-12-25T11:55:03.212Z,75.92
2022-12-25T11:56:36.535Z,77.81
2022-12-25T11:58:40.368Z,78.11
2022-12-25T12:00:16.549Z,78.00
2022-12-25T12:02:01.893Z,78.97
2022-12-25T12:03:37.135Z,79.77
2022-12-25T12:05:20.107Z,80.39
2022-12-25T12:07:03.973Z,80.45
2022-12-25T12:08:36.480Z,80.80
2022-12-25T12:10:18.321Z,81.56
2022-12-25T12:12:08.591Z,81.83
2022-12-25T12:13:50.044Z,82.58
2022-12-25T12:15:51.284Z,83.69
2022-12-25T12:17:23.047Z,84.42
2022-12-25T12:18:54.644Z,84.20
2022-12-25T12:20:26.343Z,84.53
2022-12-25T12:22:01.643Z,84.98
2022-12-25T12:23:46.832Z,85.23
2022-12-25T12:25:18.874Z,85.70
2022-12-25T12:27:05.912Z,85.59
2022-12-25T12:28:45.823Z,85.25
2022-12-25T12:30:31.451Z,85.43
2022-12-25T12:32:06.403Z,85.00
2022-12-25T12:33:50.599Z,85.45
2022-12-25T12:35:28.230Z,86.00
2022-12-25T12:37:24.465Z,86.86
2022-12-25T12:38:59.025Z,87.28
2022-12-25T12:40:38.847Z,87.22
2022-12-25T12:42:21.102Z,87.37
2022-12-25T12:43:54.393Z,86.96
2022-12-25T12:45:31.176Z,87.18
2022-12-25T12:47:02.821Z,87.46
2022-12-25T12:48:41.357Z,87.97
2022-12-25T12:50:31.252Z,87.91
2022-12-25T12:52:05.214Z,88.50
2022-12-25T12:53:39.232Z,88.40
2022-12-25T12:55:15.062Z,88.76
2022-12-25T12:57:03.510Z,88.47
2022-12-25T12:58:37.604Z,88.47
2022-12-25T13:00:21.264Z,88.20
2022-12-25T13:02:13.555Z,88.23
2022-12-25T13:04:16.287Z,88.26
2022-12-25T13:05:52.526Z,88.72
2022-12-25T13:07:32.064Z,89.04
2022-12-25T13:09:23.037Z,88.82
2022-12-25T13:11:13.965Z,88.17
2022-12-25T13:12:46.857Z,87.94
2022-12-25T13:14:24.315Z,87.60
2022-12-25T13:15:57.616Z,88.36
2022-12-25T13:17:29.623Z,88.69
2022-12-25T13:19:06.101Z,88.62
2022-12-25T13:20:45.257Z,88.87
2022-12-25T13:22:46.445Z,89.00
2022-12-25T13:24:24.529Z,89.20
2022-12-25T13:26:01.255Z,89.23
2022-12-25T13:27:33.858Z,89.48
2022-12-25T13:29:11.346Z,89.59
2022-12-25T13:30:43.405Z,89.72
2022-12-25T13:32:30.628Z,89.16
2022-12-25T13:34:26.800Z,89.25
2022-12-25T13:35:58.819Z,89.48
2022-12-25T13:37:31.525Z,88.46
2022-12-25T13:39:03.859Z,88.10
2022-12-25T13:40:36.047Z,87.75
2022-12-25T13:42:10.037Z,87.44
2022-12-25T13:43:44.405Z,88.01
2022-12-25T13:45:24.193Z,87.92
2022-12-25T13:46:55.787Z,88.08
2022-12-25T13:48:27.502Z,88.67
2022-12-25T13:50:21.879Z,88.97
2022-12-25T13:52:10.590Z,88.57
2022-12-25T13:53:43.046Z,88.94
2022-12-25T13:55:21.547Z,89.67
2022-12-25T13:56:54.725Z,89.36
2022-12-25T13:58:29.955Z,89.31
2022-12-25T14:00:02.697Z,88.50
2022-12-25T14:01:42.863Z,88.46
2022-12-25T14:03:19.713Z,88.18
2022-12-25T14:04:51.277Z,88.19
2022-12-25T14:06:28.443Z,88.13
2022-12-25T14:08:03.265Z,88.47
2022-12-25T14:09:35.834Z,89.08
2022-12-25T14:11:08.584Z,89.48
2022-12-25T14:12:41.639Z,89.76
2022-12-25T14:14:20.769Z,89.86
2022-12-25T14:15:55.045Z,90.16
2022-12-25T14:17:27.061Z,89.78
2022-12-25T14:19:03.710Z,89.87
2022-12-25T14:20:39.982Z,89.58
2022-12-25T14:22:18.884Z,90.16
2022-12-25T14:23:50.880Z,89.87
2022-12-25T14:25:31.261Z,89.99
2022-12-25T14:27:05.689Z,90.12
2022-12-25T14:28:37.735Z,90.63
2022-12-25T14:30:12.916Z,90.88
2022-12-25T14:31:46.816Z,90.50
2022-12-25T14:33:22.919Z,91.05
2022-12-25T14:34:59.538Z,90.33
2022-12-25T14:36:33.225Z,90.76
2022-12-25T14:38:05.820Z,90.69
2022-12-25T14:39:38.396Z,90.82
2022-12-25T14:41:25.809Z,91.28
2022-12-25T14:43:03.696Z,90.99
2022-12-25T14:44:39.467Z,91.24
2022-12-25T14:46:24.095Z,91.24
2022-12-25T14:47:59.253Z,91.66
2022-12-25T14:49:32.457Z,91.45
2022-12-25T14:51:09.102Z,91.63
2022-12-25T14:52:45.385Z,91.44
2022-12-25T14:54:23.160Z,92.33
2022-12-25T14:55:55.372Z,92.21
2022-12-25T14:57:37.792Z,92.01
2022-12-25T14:59:19.027Z,91.63
2022-12-25T15:00:57.613Z,92.59
2022-12-25T15:02:44.338Z,93.21
2022-12-25T15:04:18.113Z,93.32
2022-12-25T15:06:03.694Z,92.63
2022-12-25T15:07:35.358Z,92.49
2022-12-25T15:09:15.302Z,92.83
2022-12-25T15:10:59.697Z,92.93
2022-12-25T15:12:32.968Z,92.88
2022-12-25T15:14:04.604Z,93.34
2022-12-25T15:15:36.381Z,93.70
2022-12-25T15:17:29.494Z,93.55
2022-12-25T15:19:01.994Z,93.24
2022-12-25T15:20:34.693Z,93.06
2022-12-25T15:22:06.332Z,93.93
2022-12-25T15:23:37.951Z,94.02
2022-12-25T15:25:14.763Z,93.84
2022-12-25T15:26:46.625Z,94.17
2022-12-25T15:28:18.456Z,94.47
2022-12-25T15:31:44.415Z,94.26
2022-12-25T15:33:18.260Z,94.36
2022-12-25T15:34:50.553Z,94.40
2022-12-25T15:36:23.303Z,94.94
2022-12-25T15:37:54.865Z,94.84
2022-12-25T15:39:26.572Z,94.73
2022-12-25T15:40:58.270Z,95.49
2022-12-25T15:42:30.863Z,94.75
2022-12-25T15:44:03.973Z,95.16
2022-12-25T15:45:35.747Z,95.33
2022-12-25T15:47:10.042Z,95.35
2022-12-25T15:48:41.793Z,95.75
2022-12-25T15:50:13.508Z,95.65
2022-12-25T15:51:46.223Z,94.98
2022-12-25T15:53:17.876Z,94.95
2022-12-25T15:54:49.452Z,95.09
2022-12-25T15:56:22.309Z,95.35
2022-12-25T15:57:54.635Z,94.93
2022-12-25T15:59:26.180Z,95.34
2022-12-25T16:00:57.869Z,95.84
2022-12-25T16:02:29.571Z,95.89
2022-12-25T16:04:01.277Z,95.51
2022-12-25T16:05:32.840Z,95.60
2022-12-25T16:07:04.491Z,95.42
2022-12-25T16:08:36.007Z,95.56
2022-12-25T16:10:14.443Z,95.37
2022-12-25T16:11:46.569Z,95.81
2022-12-25T16:13:18.193Z,95.49
2022-12-25T16:14:49.701Z,95.48
2022-12-25T16:16:22.770Z,96.06
2022-12-25T16:17:54.400Z,96.37
2022-12-25T16:19:25.979Z,95.43
2022-12-25T16:20:59.199Z,95.81
2022-12-25T16:22:31.964Z,96.18
2022-12-25T16:24:04.017Z,95.90
2022-12-25T16:25:35.682Z,95.53
2022-12-25T16:27:07.343Z,95.89
2022-12-25T16:28:39.034Z,95.77
2022-12-25T16:30:14.962Z,95.82
2022-12-25T16:31:48.119Z,95.93
2022-12-25T16:33:19.788Z,95.96
2022-12-25T16:34:51.378Z,95.60
2022-12-25T16:36:26.855Z,95.63
2022-12-25T16:37:58.815Z,95.17
2022-12-25T16:39:30.535Z,95.15
2022-12-25T16:41:02.233Z,95.22
2022-12-25T16:42:34.116Z,95.17
2022-12-25T16:44:09.554Z,95.46
2022-12-25T16:45:41.316Z,96.09
2022-12-25T16:47:12.940Z,95.91
2022-12-25T16:48:44.853Z,96.19
2022-12-25T16:50:16.611Z,95.91
2022-12-25T16:51:48.301Z,95.96
2022-12-25T16:53:19.809Z,95.94
2022-12-25T16:54:51.360Z,95.79
2022-12-25T16:56:28.290Z,95.49
2022-12-25T16:58:00.816Z,95.68
2022-12-25T16:59:33.043Z,95.73
2022-12-25T17:01:09.862Z,96.37
2022-12-25T17:02:41.596Z,96.00
2022-12-25T17:04:13.577Z,96.26
2022-12-25T17:05:45.151Z,96.78
2022-12-25T17:07:17.351Z,96.45
2022-12-25T17:08:50.171Z,96.04
2022-12-25T17:10:21.786Z,96.20
2022-12-25T17:11:53.346Z,95.96
2022-12-25T17:13:24.976Z,96.21
2022-12-25T17:14:56.563Z,96.84
2022-12-25T17:16:31.991Z,96.23
2022-12-25T17:18:03.725Z,96.59
2022-12-25T17:19:35.493Z,96.83
2022-12-25T17:21:07.352Z,96.71
2022-12-25T17:22:38.983Z,96.04
2022-12-25T17:24:10.541Z,96.14
2022-12-25T17:25:42.162Z,95.79
2022-12-25T17:27:14.126Z,96.11
2022-12-25T17:28:45.902Z,96.25
2022-12-25T17:30:17.457Z,96.45
2022-12-25T17:31:49.169Z,96.41
2022-12-25T17:33:20.886Z,96.36
2022-12-25T17:34:52.506Z,96.24
2022-12-25T17:36:24.276Z,96.34
2022-12-25T17:37:55.854Z,96.24
2022-12-25T17:39:27.723Z,96.58
2022-12-25T17:41:01.238Z,96.14
2022-12-25T17:42:33.088Z,96.07
2022-12-25T17:44:04.963Z,96.30
2022-12-25T17:45:37.546Z,96.57
2022-12-25T17:47:09.163Z,96.37
2022-12-25T17:48:40.976Z,96.75
2022-12-25T17:50:12.597Z,96.77
2022-12-25T17:51:44.923Z,96.40
2022-12-25T17:53:16.527Z,96.57
2022-12-25T17:54:48.134Z,96.83
2022-12-25T17:56:21.943Z,96.22
2022-12-25T17:57:53.518Z,95.88
2022-12-25T17:59:29.477Z,95.88
2022-12-25T18:01:08.302Z,95.75
2022-12-25T18:02:43.817Z,96.05
2022-12-25T18:04:15.612Z,96.23
2022-12-25T18:05:47.804Z,95.92
2022-12-25T18:07:19.492Z,96.23
2022-12-25T18:08:51.349Z,96.62
2022-12-25T18:10:22.900Z,95.97
2022-12-25T18:11:54.872Z,96.20
2022-12-25T18:13:26.642Z,95.74
2022-12-25T18:14:58.294Z,95.93
2022-12-25T18:16:33.124Z,96.34
2022-12-25T18:18:05.317Z,96.11
2022-12-25T18:19:36.952Z,95.86
2022-12-25T18:21:08.880Z,96.20
2022-12-25T18:22:40.483Z,95.76
2022-12-25T18:24:12.408Z,95.92
2022-12-25T18:25:44.142Z,95.61
2022-12-25T18:27:15.787Z,94.85
2022-12-25T18:28:48.726Z,94.58
2022-12-25T18:30:21.021Z,94.86
2022-12-25T18:31:52.818Z,94.76
2022-12-25T18:33:26.713Z,94.87
2022-12-25T18:34:58.335Z,95.08
2022-12-25T18:36:30.404Z,94.46
2022-12-25T18:38:02.000Z,94.25
2022-12-25T18:39:33.652Z,94.14
2022-12-25T18:41:08.066Z,94.04
2022-12-25T18:42:39.820Z,93.63
2022-12-25T18:44:11.375Z,93.13
2022-12-25T18:45:43.110Z,93.00
2022-12-25T18:47:14.672Z,92.75
2022-12-25T18:48:46.445Z,92.38
2022-12-25T18:50:18.116Z,92.04
2022-12-25T18:51:49.835Z,90.90
2022-12-25T18:53:21.471Z,90.36
2022-12-25T18:54:53.156Z,90.90
2022-12-25T18:56:24.809Z,91.53
2022-12-25T18:57:56.488Z,91.79
2022-12-25T18:59:29.690Z,91.95
2022-12-25T19:01:01.515Z,91.72
2022-12-25T19:02:33.335Z,92.11
2022-12-25T19:04:06.178Z,91.28
2022-12-25T19:05:41.108Z,91.20
2022-12-25T19:07:12.705Z,90.88
2022-12-25T19:08:44.655Z,91.67
2022-12-25T19:10:16.290Z,91.51
2022-12-25T19:11:47.900Z,91.50
2022-12-25T19:13:19.517Z,91.16
2022-12-25T19:14:51.290Z,91.20
2022-12-25T19:16:22.922Z,90.12
2022-12-25T19:17:54.508Z,90.10
2022-12-25T19:19:26.591Z,90.67
2022-12-25T19:21:02.799Z,90.91
2022-12-25T19:22:34.385Z,91.50
2022-12-25T19:24:06.362Z,92.16
2022-12-25T19:25:39.798Z,92.25
2022-12-25T19:27:11.512Z,92.63
2022-12-25T19:28:43.147Z,92.13
2022-12-25T19:30:14.816Z,92.78
2022-12-25T19:31:46.598Z,92.88
2022-12-25T19:33:18.936Z,93.05
2022-12-25T19:34:50.649Z,92.77
2022-12-25T19:36:22.271Z,92.70
2022-12-25T19:37:53.912Z,93.13
2022-12-25T19:39:25.560Z,92.40
2022-12-25T19:41:00.951Z,92.63
2022-12-25T19:42:32.817Z,92.89
2022-12-25T19:44:05.566Z,92.62
2022-12-25T19:45:37.230Z,92.89
2022-12-25T19:47:10.400Z,93.29
2022-12-25T19:48:42.099Z,93.55
2022-12-25T19:50:13.786Z,93.63
2022-12-25T19:51:46.285Z,93.23
2022-12-25T19:53:18.457Z,93.35
2022-12-25T19:54:53.146Z,93.53
2022-12-25T19:56:26.448Z,93.75
2022-12-25T19:57:59.173Z,93.52
2022-12-25T19:59:30.859Z,94.19
2022-12-25T20:01:06.044Z,94.02
2022-12-25T20:02:37.760Z,93.77
2022-12-25T20:04:10.432Z,93.43
2022-12-25T20:05:44.690Z,93.37
2022-12-25T20:07:16.287Z,93.59
2022-12-25T20:08:49.451Z,93.58
2022-12-25T20:10:21.448Z,93.96
2022-12-25T20:11:53.174Z,93.30
2022-12-25T20:13:24.831Z,92.68
2022-12-25T20:14:56.449Z,93.37
2022-12-25T20:16:28.292Z,93.14
2022-12-25T20:17:59.906Z,93.28
2022-12-25T20:19:31.507Z,92.71
2022-12-25T20:21:14.012Z,93.00
2022-12-25T20:22:45.607Z,92.91
2022-12-25T20:24:17.230Z,92.63
2022-12-25T20:25:48.850Z,93.05
2022-12-25T20:27:20.475Z,93.37
2022-12-25T20:28:52.616Z,93.42
2022-12-25T20:30:24.152Z,93.60
2022-12-25T20:31:55.811Z,93.61
2022-12-25T20:33:27.491Z,94.33
2022-12-25T20:34:59.180Z,94.10
2022-12-25T20:36:36.296Z,94.23
2022-12-25T20:38:08.201Z,94.43
2022-12-25T20:39:39.802Z,94.15